Skip Navigation Links Skip Navigation Links

Current Weather

Dewar Lakes, Nunavut

For information only: do not use for flight planning or navigation.
Latest weather
Observation time Monday, September 25, 2017 6:22 PM EDT
Local time Monday, September 25, 2017 6:30 PM EDT
Flight conditions Low Instrument Meteorological Conditions
Winds
Wind direction South (180°)
Winds variable from 110° to 210°
Wind speed 3 mph
Visibility 0 mi.
Present weather SM
Sky condition
Ceiling 1,000 ft. overcast
Cloud layer overcast 1,000 ft.
Temperature 23°F
Dewpoint 19°F
Altimeter 29.74 in.Hg
Derived measurements
Relative humidity 86%
Wind chill 18°F
Density altitude -1684 ft.
Remarks
Special weather observation.
Fully automated report.
METAR SPECI CWUW 252222Z AUTO 18003KT 110V210 ////SM //// OVC010 M05/M07 A2974

Settings

Location code

InnerDrive.Weather 4.0.6144.1 Release CLR 4.0.30319.36366
Copyright ©2015 Inner Drive Technology. All rights reserved. Portions Copyright ©1986-2015 David Braverman.

Find weather

Site navigation


Skip Navigation Links

Place info

Page info

PayPal - The safer, easier way to pay online!

Return home.

Copyright ©2017 Inner Drive Technology. Purveyors of fine, hand-crafted computer software. Page printed 2017-09-25T22:30:55 UTC.